PASY METAR and TAF weather

Enter ICAO airport designator
Station Type Date Time Source
PASY METAR 2021/08/01 16:58 UTC NOAA

PASY 011658Z AUTO M 7SM M M A2960 RMK AO2 SLPNO PNO FZRANO $


Station Type Date Time Source
PASY Decoded METAR 2021/08/01 16:58 UTC NOAA

SHEMYA EARECKSON AS, AK, United States (PASY) 52-43N 174-07E
Aug 01, 2021 - 12:58 PM EDT / 2021.08.01 1658 UTC
Visibility: 7 mile(s):0
Pressure (altimeter): 29.6 in. Hg (1002 hPa)
ob: PASY 011658Z AUTO M 7SM M M A2960 RMK AO2 SLPNO PNO FZRANO
cycle: 17

Station Type Date Time Source
PASY TAF 2021/08/01 14:11 UTC NOAA

TAF PASY 011400Z 0114/0220 36015KT 9999 BKN015 OVC090 650906 QNH2957INS
BECMG 0214/0215 VRB06KT 8000 BR BKN020 OVC050 620502 QNH2960INS TX10/0207Z TN09/0122Z LIMITED METWATCH 0114 TIL 0220

Example: see airport list